createdAt,value
2018-07-30T00:01:47.863Z,44.58
2018-07-30T00:04:15.298Z,49.17
2018-07-30T00:06:43.896Z,44.33
2018-07-30T00:09:12.212Z,49.83
2018-07-30T00:11:39.721Z,54.92
2018-07-30T00:14:07.266Z,54.63
2018-07-30T00:16:34.804Z,53.42
2018-07-30T00:19:02.244Z,55.33
2018-07-30T00:21:29.741Z,47.42
2018-07-30T00:23:57.265Z,43.75
2018-07-30T00:26:24.770Z,45.85
2018-07-30T00:28:52.232Z,49.88
2018-07-30T00:31:19.709Z,51.85
2018-07-30T00:33:47.163Z,52.40
2018-07-30T00:36:14.592Z,46.45
2018-07-30T00:38:42.070Z,48.00
2018-07-30T00:41:09.514Z,4.35
2018-07-30T00:43:36.983Z,4.25
2018-07-30T00:46:04.452Z,5.03
2018-07-30T00:48:32.029Z,5.15
2018-07-30T00:50:59.478Z,5.53
2018-07-30T00:53:27.017Z,4.68
2018-07-30T00:55:54.496Z,4.15
2018-07-30T00:58:21.964Z,5.05
2018-07-30T01:00:49.423Z,4.40
2018-07-30T01:03:17.815Z,4.40
2018-07-30T01:05:45.270Z,4.00
2018-07-30T01:08:12.708Z,4.55
2018-07-30T01:10:40.106Z,2.85
2018-07-30T01:13:07.544Z,4.28
2018-07-30T01:15:35.010Z,4.30
2018-07-30T01:18:02.450Z,3.17
2018-07-30T01:20:29.839Z,3.72
2018-07-30T01:22:57.335Z,4.18
2018-07-30T01:25:24.811Z,3.78
2018-07-30T01:27:52.226Z,3.97
2018-07-30T01:30:19.704Z,3.35
2018-07-30T01:32:47.224Z,4.25
2018-07-30T01:35:14.697Z,3.58
2018-07-30T01:37:42.126Z,4.35
2018-07-30T01:40:09.570Z,4.25
2018-07-30T01:42:37.008Z,3.50
2018-07-30T01:45:04.447Z,3.78
2018-07-30T01:47:31.856Z,4.07
2018-07-30T01:49:59.358Z,4.18
2018-07-30T01:52:26.757Z,3.90
2018-07-30T01:54:54.193Z,5.22
2018-07-30T01:57:21.685Z,3.40
2018-07-30T01:59:49.283Z,3.87
2018-07-30T02:02:16.761Z,4.93
2018-07-30T02:04:44.188Z,4.95
2018-07-30T02:07:11.630Z,4.05
2018-07-30T02:09:39.030Z,4.53
2018-07-30T02:12:06.485Z,3.70
2018-07-30T02:14:33.898Z,4.32
2018-07-30T02:17:01.392Z,5.00
2018-07-30T02:19:28.849Z,3.47
2018-07-30T02:21:56.571Z,4.47
2018-07-30T02:24:24.014Z,3.28
2018-07-30T02:26:51.445Z,3.80
2018-07-30T02:29:18.954Z,4.78
2018-07-30T02:31:46.444Z,4.18
2018-07-30T02:34:13.906Z,4.28
2018-07-30T02:36:41.436Z,4.53
2018-07-30T02:39:08.937Z,3.75
2018-07-30T02:41:36.426Z,4.12
2018-07-30T02:44:03.883Z,3.65
2018-07-30T02:46:31.360Z,3.40
2018-07-30T02:48:58.855Z,3.95
2018-07-30T02:51:26.305Z,6.03
2018-07-30T02:53:53.806Z,3.30
2018-07-30T02:56:21.266Z,3.87
2018-07-30T02:58:48.838Z,4.12
2018-07-30T03:01:16.295Z,4.57
2018-07-30T03:03:43.734Z,3.87
2018-07-30T03:06:11.196Z,3.35
2018-07-30T03:08:38.595Z,4.00
2018-07-30T03:11:06.071Z,3.42
2018-07-30T03:13:33.566Z,3.70
2018-07-30T03:16:01.044Z,4.35
2018-07-30T03:18:28.527Z,3.80
2018-07-30T03:20:55.966Z,3.72
2018-07-30T03:23:23.463Z,3.90
2018-07-30T03:25:50.919Z,4.60
2018-07-30T03:28:18.372Z,4.20
2018-07-30T03:30:45.827Z,4.55
2018-07-30T03:33:13.326Z,4.07
2018-07-30T03:35:40.775Z,3.65
2018-07-30T03:38:08.231Z,4.10
2018-07-30T03:40:35.674Z,2.85
2018-07-30T03:43:03.138Z,3.53
2018-07-30T03:45:30.631Z,4.65
2018-07-30T03:47:58.112Z,4.70
2018-07-30T03:50:25.515Z,4.07
2018-07-30T03:52:52.980Z,4.00
2018-07-30T03:55:20.385Z,4.28
2018-07-30T03:57:47.841Z,3.90
2018-07-30T04:00:15.391Z,4.57
2018-07-30T04:02:43.088Z,4.45
2018-07-30T04:05:10.577Z,3.92
2018-07-30T04:07:38.050Z,4.53
2018-07-30T04:10:05.470Z,4.20
2018-07-30T04:12:32.887Z,4.15
2018-07-30T04:15:00.324Z,4.62
2018-07-30T04:17:27.775Z,3.75
2018-07-30T04:19:55.221Z,4.32
2018-07-30T04:22:22.698Z,3.90
2018-07-30T04:24:50.138Z,4.05
2018-07-30T04:27:17.590Z,3.85
2018-07-30T04:29:45.036Z,4.43
2018-07-30T04:32:12.473Z,2.92
2018-07-30T04:34:39.967Z,4.15
2018-07-30T04:37:07.510Z,4.18
2018-07-30T04:39:34.971Z,3.78
2018-07-30T04:42:02.454Z,4.57
2018-07-30T04:44:29.929Z,3.65
2018-07-30T04:46:57.448Z,3.90
2018-07-30T04:49:24.931Z,3.72
2018-07-30T04:51:52.381Z,3.37
2018-07-30T04:54:19.842Z,4.82
2018-07-30T04:56:47.364Z,3.35
2018-07-30T04:59:14.855Z,4.22
2018-07-30T05:01:42.291Z,4.75
2018-07-30T05:04:09.752Z,4.57
2018-07-30T05:06:37.294Z,4.50
2018-07-30T05:09:04.737Z,4.80
2018-07-30T05:11:32.185Z,4.07
2018-07-30T05:13:59.630Z,4.68
2018-07-30T05:16:27.115Z,3.42
2018-07-30T05:18:54.630Z,4.28
2018-07-30T05:21:22.145Z,3.65
2018-07-30T05:23:49.685Z,5.72
2018-07-30T05:26:17.109Z,3.30
2018-07-30T05:28:44.698Z,4.28
2018-07-30T05:31:12.178Z,3.35
2018-07-30T05:33:39.642Z,3.95
2018-07-30T05:36:07.116Z,3.47
2018-07-30T05:38:34.589Z,5.43
2018-07-30T05:41:02.004Z,4.97
2018-07-30T05:43:29.475Z,3.60
2018-07-30T05:45:56.997Z,4.93
2018-07-30T05:48:24.526Z,4.60
2018-07-30T05:50:52.016Z,4.43
2018-07-30T05:53:19.516Z,4.37
2018-07-30T05:55:46.981Z,4.07
2018-07-30T05:58:14.459Z,4.65
2018-07-30T06:00:41.940Z,4.15
2018-07-30T06:03:09.351Z,4.40
2018-07-30T06:05:36.864Z,5.47
2018-07-30T06:08:04.389Z,5.85
2018-07-30T06:10:31.795Z,5.90
2018-07-30T06:12:59.425Z,4.30
2018-07-30T06:15:27.063Z,5.70
2018-07-30T06:17:54.617Z,6.55
2018-07-30T06:20:22.010Z,6.22
2018-07-30T06:22:49.517Z,6.03
2018-07-30T06:25:17.051Z,5.53
2018-07-30T06:27:44.547Z,5.45
2018-07-30T06:30:11.984Z,4.15
2018-07-30T06:32:39.442Z,4.35
2018-07-30T06:35:06.853Z,4.95
2018-07-30T06:37:34.331Z,5.43
2018-07-30T06:40:01.896Z,5.37
2018-07-30T06:42:29.378Z,5.30
2018-07-30T06:44:56.819Z,4.93
2018-07-30T06:47:24.387Z,4.35
2018-07-30T06:49:51.919Z,5.00
2018-07-30T06:52:19.402Z,4.95
2018-07-30T06:54:46.969Z,6.07
2018-07-30T06:57:14.471Z,5.62
2018-07-30T06:59:41.965Z,5.70
2018-07-30T07:02:09.461Z,5.82
2018-07-30T07:04:36.895Z,5.40
2018-07-30T07:07:04.373Z,7.18
2018-07-30T07:09:31.808Z,7.40
2018-07-30T07:11:59.286Z,6.75
2018-07-30T07:14:26.914Z,7.00
2018-07-30T07:16:54.445Z,6.00
2018-07-30T07:19:21.869Z,6.65
2018-07-30T07:21:49.376Z,7.55
2018-07-30T07:24:16.994Z,6.68
2018-07-30T07:26:44.534Z,5.80
2018-07-30T07:29:11.982Z,7.07
2018-07-30T07:31:39.408Z,7.72
2018-07-30T07:34:06.884Z,7.97
2018-07-30T07:36:34.384Z,8.13
2018-07-30T07:39:01.857Z,8.25
2018-07-30T07:41:29.339Z,9.23
2018-07-30T07:43:56.783Z,8.18
2018-07-30T07:46:24.294Z,9.80
2018-07-30T07:48:51.939Z,8.30
2018-07-30T07:51:19.535Z,10.60
2018-07-30T07:53:47.044Z,8.57
2018-07-30T07:56:14.515Z,9.35
2018-07-30T07:58:41.910Z,8.40
2018-07-30T08:01:09.305Z,8.00
2018-07-30T08:03:36.832Z,11.30
2018-07-30T08:06:04.248Z,8.43
2018-07-30T08:08:31.740Z,8.77
2018-07-30T08:10:59.197Z,8.65
2018-07-30T08:13:26.778Z,11.35
2018-07-30T08:15:54.234Z,9.70
2018-07-30T08:18:21.816Z,8.60
2018-07-30T08:20:49.352Z,8.18
2018-07-30T08:28:07.476Z,9.15
2018-07-30T08:30:35.067Z,10.27
2018-07-30T08:33:02.576Z,8.60
2018-07-30T08:35:30.122Z,9.43
2018-07-30T08:37:57.584Z,10.63
2018-07-30T08:40:25.072Z,8.38
2018-07-30T08:42:52.515Z,9.95
2018-07-30T08:45:19.990Z,10.90
2018-07-30T08:47:47.539Z,10.98
2018-07-30T08:50:15.013Z,11.38
2018-07-30T08:52:42.503Z,10.95
2018-07-30T08:57:37.206Z,9.70
2018-07-30T09:00:04.832Z,9.23
2018-07-30T09:02:32.329Z,10.43
2018-07-30T09:04:59.745Z,8.50
2018-07-30T09:07:27.213Z,8.23
2018-07-30T09:09:54.718Z,8.88
2018-07-30T09:12:22.263Z,8.75
2018-07-30T09:14:49.743Z,7.90
2018-07-30T09:17:17.231Z,7.78
2018-07-30T09:19:45.744Z,6.43
2018-07-30T09:22:13.175Z,7.60
2018-07-30T09:24:40.587Z,9.38
2018-07-30T09:27:08.116Z,9.85
2018-07-30T09:29:35.591Z,10.30
2018-07-30T09:32:03.047Z,8.65
2018-07-30T09:34:30.472Z,11.18
2018-07-30T09:36:58.234Z,10.10
2018-07-30T09:39:25.760Z,8.25
2018-07-30T09:41:53.235Z,9.00
2018-07-30T09:44:20.710Z,11.48
2018-07-30T09:46:48.368Z,8.85
2018-07-30T09:49:15.878Z,11.10
2018-07-30T09:51:43.328Z,10.23
2018-07-30T09:54:10.859Z,10.15
2018-07-30T09:56:38.452Z,9.10
2018-07-30T09:59:05.904Z,8.23
2018-07-30T10:01:33.405Z,9.07
2018-07-30T10:04:00.899Z,9.75
2018-07-30T10:06:28.438Z,12.40
2018-07-30T10:08:56.045Z,10.63
2018-07-30T10:11:23.514Z,9.82
2018-07-30T10:13:51.134Z,10.07
2018-07-30T10:16:18.686Z,7.68
2018-07-30T10:18:46.220Z,10.35
2018-07-30T10:21:13.666Z,12.75
2018-07-30T10:23:41.158Z,12.02
2018-07-30T10:26:08.538Z,9.43
2018-07-30T10:28:36.000Z,11.07
2018-07-30T10:31:03.548Z,11.85
2018-07-30T10:33:31.075Z,10.68
2018-07-30T10:35:58.490Z,10.75
2018-07-30T10:38:26.116Z,12.15
2018-07-30T10:40:53.461Z,8.68
2018-07-30T10:43:20.873Z,11.43
2018-07-30T10:45:48.347Z,12.88
2018-07-30T10:48:15.772Z,14.38
2018-07-30T10:50:43.257Z,16.00
2018-07-30T10:53:10.723Z,11.90
2018-07-30T10:55:38.230Z,11.85
2018-07-30T10:58:05.758Z,11.00
2018-07-30T11:03:00.243Z,13.40
2018-07-30T11:10:21.727Z,15.30
2018-07-30T11:32:26.225Z,15.07
2018-07-30T11:34:53.748Z,14.50
2018-07-30T11:37:21.220Z,14.90
2018-07-30T11:39:48.670Z,14.95
2018-07-30T11:42:16.134Z,16.48
2018-07-30T11:44:43.582Z,15.82
2018-07-30T11:47:11.039Z,16.80
2018-07-30T11:49:38.521Z,28.83
2018-07-30T11:52:05.944Z,31.65
2018-07-30T11:57:00.583Z,20.10
2018-07-30T11:59:28.085Z,14.70
2018-07-30T12:01:56.212Z,15.75
2018-07-30T12:04:23.705Z,16.10
2018-07-30T12:06:51.215Z,12.23
2018-07-30T12:09:18.880Z,12.15
2018-07-30T12:11:46.341Z,14.63
2018-07-30T12:14:13.798Z,12.48
2018-07-30T12:24:02.670Z,13.68
2018-07-30T12:26:30.143Z,14.95
2018-07-30T12:28:57.588Z,14.57
2018-07-30T12:31:25.048Z,13.38
2018-07-30T12:33:52.491Z,16.25
2018-07-30T12:36:19.995Z,16.20
2018-07-30T12:38:47.513Z,13.05
2018-07-30T12:41:15.072Z,16.60
2018-07-30T12:43:42.526Z,18.80
2018-07-30T12:46:09.996Z,17.02
2018-07-30T12:48:37.446Z,22.52
2018-07-30T12:51:04.928Z,17.12
2018-07-30T12:53:32.427Z,17.30
2018-07-30T12:55:59.994Z,17.58
2018-07-30T12:58:27.406Z,19.50
2018-07-30T13:00:54.857Z,17.75
2018-07-30T13:03:22.348Z,18.87
2018-07-30T13:05:49.800Z,18.37
2018-07-30T13:08:17.275Z,17.40
2018-07-30T13:10:44.717Z,25.17
2018-07-30T13:13:12.205Z,24.40
2018-07-30T13:15:39.670Z,21.70
2018-07-30T13:18:07.109Z,24.80
2018-07-30T13:37:43.944Z,20.45
2018-07-30T13:52:26.515Z,23.30
2018-07-30T14:24:18.903Z,19.60
2018-07-30T14:29:13.936Z,24.05
2018-07-30T14:36:35.449Z,22.35
2018-07-30T14:39:03.098Z,25.37
2018-07-30T14:41:30.581Z,28.42
2018-07-30T14:43:58.063Z,24.37
2018-07-30T15:03:34.548Z,24.60
2018-07-30T16:19:33.008Z,18.90
2018-07-30T18:27:00.903Z,13.90
2018-07-30T18:29:28.353Z,19.60
2018-07-30T18:31:55.895Z,17.67
2018-07-30T18:34:23.495Z,18.48
2018-07-30T18:36:51.000Z,21.42
2018-07-30T18:39:18.477Z,22.73
2018-07-30T18:41:45.937Z,17.05
2018-07-30T18:44:13.447Z,18.35
2018-07-30T18:56:29.046Z,16.23
2018-07-30T18:58:56.506Z,14.32
2018-07-30T19:01:23.966Z,12.82
2018-07-30T19:03:51.838Z,14.25
2018-07-30T19:28:23.317Z,14.10
2018-07-30T19:35:44.851Z,11.80
2018-07-30T19:43:06.540Z,13.13
2018-07-30T19:45:34.029Z,13.15
2018-07-30T19:52:55.572Z,12.13
2018-07-30T19:55:23.106Z,12.37
2018-07-30T19:57:50.839Z,15.15
2018-07-30T20:00:18.079Z,14.10
2018-07-30T20:05:12.717Z,14.50
2018-07-30T20:07:40.141Z,14.05
2018-07-30T20:10:07.666Z,14.55
2018-07-30T20:12:35.140Z,12.85
2018-07-30T20:15:02.672Z,14.65
2018-07-30T20:17:30.198Z,11.55
2018-07-30T20:19:57.715Z,13.75
2018-07-30T20:22:25.145Z,14.90
2018-07-30T20:24:52.681Z,12.82
2018-07-30T20:27:20.226Z,11.40
2018-07-30T20:29:47.644Z,13.80
2018-07-30T20:32:15.068Z,11.70
2018-07-30T20:34:42.541Z,12.93
2018-07-30T20:37:09.969Z,14.10
2018-07-30T20:39:37.445Z,16.30
2018-07-30T20:42:04.991Z,18.12
2018-07-30T20:44:32.473Z,17.55
2018-07-30T20:46:59.943Z,17.12
2018-07-30T20:49:27.378Z,16.83
2018-07-30T20:51:54.861Z,14.65
2018-07-30T20:54:22.287Z,16.15
2018-07-30T20:56:49.713Z,16.00
2018-07-30T20:59:17.310Z,16.77
2018-07-30T21:01:44.899Z,18.37
2018-07-30T21:04:12.391Z,15.95
2018-07-30T21:06:40.056Z,15.32
2018-07-30T21:09:07.539Z,14.65
2018-07-30T21:11:35.033Z,17.05
2018-07-30T21:14:03.347Z,15.65
2018-07-30T21:16:30.791Z,13.82
2018-07-30T21:18:58.304Z,16.73
2018-07-30T21:21:25.779Z,16.67
2018-07-30T21:23:53.320Z,15.27
2018-07-30T21:26:20.800Z,13.55
2018-07-30T21:28:48.239Z,11.25
2018-07-30T21:31:15.797Z,15.25
2018-07-30T21:33:43.269Z,15.63
2018-07-30T21:36:10.735Z,14.63
2018-07-30T21:38:38.221Z,13.27
2018-07-30T21:41:05.739Z,13.62
2018-07-30T21:43:33.162Z,14.27
2018-07-30T21:46:00.854Z,13.10
2018-07-30T21:48:28.363Z,13.48
2018-07-30T21:50:55.886Z,13.38
2018-07-30T21:53:23.372Z,15.38
2018-07-30T21:55:50.904Z,11.05
2018-07-30T21:58:18.365Z,14.65
2018-07-30T22:00:45.818Z,20.20
2018-07-30T22:03:13.373Z,12.20
2018-07-30T22:05:41.067Z,12.18
2018-07-30T22:08:08.503Z,15.00
2018-07-30T22:10:36.083Z,13.55
2018-07-30T22:13:03.659Z,14.55
2018-07-30T22:15:31.144Z,19.55
2018-07-30T22:17:58.581Z,12.07
2018-07-30T22:20:26.047Z,11.73
2018-07-30T22:22:53.577Z,14.30
2018-07-30T22:25:21.020Z,13.00
2018-07-30T22:27:48.466Z,13.07
2018-07-30T22:30:15.888Z,14.00
2018-07-30T22:32:43.449Z,11.80
2018-07-30T22:35:10.927Z,12.25
2018-07-30T22:37:38.374Z,11.68
2018-07-30T22:40:05.919Z,18.05
2018-07-30T22:42:33.368Z,13.68
2018-07-30T22:45:00.807Z,9.23
2018-07-30T22:47:28.389Z,9.88
2018-07-30T22:49:55.865Z,9.32
2018-07-30T22:52:23.290Z,12.73
2018-07-30T22:54:50.734Z,10.93
2018-07-30T22:57:18.232Z,10.80
2018-07-30T22:59:45.758Z,11.25
2018-07-30T23:02:13.283Z,11.18
2018-07-30T23:04:40.798Z,11.88
2018-07-30T23:07:08.400Z,10.50
2018-07-30T23:09:35.903Z,10.02
2018-07-30T23:12:03.347Z,11.95
2018-07-30T23:14:31.180Z,10.98
2018-07-30T23:16:58.673Z,12.37
2018-07-30T23:19:26.201Z,10.02
2018-07-30T23:21:53.692Z,10.05
2018-07-30T23:24:21.177Z,10.50
2018-07-30T23:26:48.658Z,12.07
2018-07-30T23:29:16.159Z,12.00
2018-07-30T23:31:43.598Z,11.60
2018-07-30T23:34:11.044Z,10.23
2018-07-30T23:36:38.552Z,10.20
2018-07-30T23:39:05.954Z,42.78
2018-07-30T23:41:33.429Z,33.88
2018-07-30T23:44:00.939Z,24.25
2018-07-30T23:46:28.371Z,20.75
2018-07-30T23:48:55.829Z,36.03
2018-07-30T23:51:23.253Z,37.58
2018-07-30T23:53:50.760Z,42.78
2018-07-30T23:56:18.160Z,53.10
2018-07-30T23:58:45.624Z,52.17
